createdAt,value
2023-05-14T00:00:55.026Z,93.99
2023-05-14T00:01:55.074Z,94.30
2023-05-14T00:02:55.224Z,94.09
2023-05-14T00:03:55.107Z,93.99
2023-05-14T00:04:54.986Z,93.99
2023-05-14T00:05:54.991Z,93.99
2023-05-14T00:06:54.983Z,94.24
2023-05-14T00:07:54.978Z,94.24
2023-05-14T00:08:54.937Z,94.65
2023-05-14T00:09:54.934Z,94.24
2023-05-14T00:10:54.972Z,94.45
2023-05-14T00:11:54.931Z,94.34
2023-05-14T00:12:54.914Z,94.55
2023-05-14T00:13:54.894Z,94.03
2023-05-14T00:14:54.999Z,94.24
2023-05-14T00:15:54.973Z,94.03
2023-05-14T00:16:54.846Z,94.08
2023-05-14T00:17:55.091Z,93.98
2023-05-14T00:18:57.451Z,94.80
2023-05-14T00:19:54.820Z,94.80
2023-05-14T00:20:54.942Z,94.49
2023-05-14T00:21:54.816Z,94.80
2023-05-14T00:22:54.779Z,94.70
2023-05-14T00:23:54.772Z,94.80
2023-05-14T00:24:54.775Z,94.74
2023-05-14T00:25:54.756Z,94.70
2023-05-14T00:26:54.779Z,94.64
2023-05-14T00:27:54.732Z,94.53
2023-05-14T00:28:54.713Z,94.53
2023-05-14T00:29:54.728Z,94.53
2023-05-14T00:30:54.733Z,94.43
2023-05-14T00:31:54.711Z,94.95
2023-05-14T00:32:54.747Z,94.74
2023-05-14T00:33:54.665Z,94.53
2023-05-14T00:34:54.664Z,94.78
2023-05-14T00:35:54.640Z,95.05
2023-05-14T00:36:54.618Z,94.68
2023-05-14T00:37:54.622Z,94.89
2023-05-14T00:38:54.612Z,94.99
2023-05-14T00:39:54.600Z,95.09
2023-05-14T00:40:54.593Z,94.89
2023-05-14T00:41:54.573Z,94.47
2023-05-14T00:42:54.577Z,94.37
2023-05-14T00:43:54.544Z,94.99
2023-05-14T00:44:54.538Z,94.57
2023-05-14T00:45:54.529Z,94.57
2023-05-14T00:46:54.544Z,94.68
2023-05-14T00:47:54.564Z,95.03
2023-05-14T00:48:54.482Z,95.03
2023-05-14T00:49:54.469Z,94.31
2023-05-14T00:50:54.481Z,94.62
2023-05-14T00:51:54.455Z,94.21
2023-05-14T00:53:00.145Z,94.31
2023-05-14T00:53:54.441Z,94.46
2023-05-14T00:54:54.416Z,94.42
2023-05-14T00:55:54.428Z,94.52
2023-05-14T00:56:54.415Z,94.67
2023-05-14T00:57:54.408Z,94.93
2023-05-14T00:58:54.414Z,94.87
2023-05-14T00:59:54.378Z,94.82
2023-05-14T01:00:54.375Z,94.62
2023-05-14T01:01:54.376Z,94.72
2023-05-14T01:02:54.391Z,94.87
2023-05-14T01:03:54.371Z,94.67
2023-05-14T01:04:54.293Z,94.56
2023-05-14T01:05:54.285Z,94.35
2023-05-14T01:06:54.291Z,94.87
2023-05-14T01:07:54.265Z,95.07
2023-05-14T01:08:54.250Z,94.67
2023-05-14T01:09:54.263Z,95.12
2023-05-14T01:10:54.243Z,94.87
2023-05-14T01:11:54.251Z,94.15
2023-05-14T01:12:54.218Z,94.46
2023-05-14T01:13:54.195Z,94.50
2023-05-14T01:14:54.236Z,94.40
2023-05-14T01:15:54.181Z,94.50
2023-05-14T01:16:54.185Z,94.50
2023-05-14T01:17:54.219Z,94.40
2023-05-14T01:18:54.185Z,94.29
2023-05-14T01:19:54.158Z,94.50
2023-05-14T01:20:54.104Z,94.71
2023-05-14T01:21:54.113Z,94.65
2023-05-14T01:22:54.123Z,94.54
2023-05-14T01:23:54.078Z,94.44
2023-05-14T01:24:54.065Z,94.23
2023-05-14T01:25:54.075Z,94.34
2023-05-14T01:26:54.042Z,94.54
2023-05-14T01:27:54.043Z,94.23
2023-05-14T01:28:54.019Z,94.54
2023-05-14T01:29:54.014Z,94.34
2023-05-14T01:30:54.027Z,94.54
2023-05-14T01:31:54.015Z,94.44
2023-05-14T01:32:54.018Z,94.59
2023-05-14T01:33:53.959Z,94.34
2023-05-14T01:34:53.950Z,94.54
2023-05-14T01:35:53.955Z,94.54
2023-05-14T01:36:53.950Z,94.54
2023-05-14T01:37:53.917Z,94.65
2023-05-14T01:38:53.927Z,94.48
2023-05-14T01:39:53.896Z,94.48
2023-05-14T01:40:53.877Z,94.59
2023-05-14T01:41:53.897Z,94.69
2023-05-14T01:42:53.892Z,94.69
2023-05-14T01:43:53.879Z,94.18
2023-05-14T01:44:53.829Z,94.90
2023-05-14T01:45:53.869Z,94.90
2023-05-14T01:46:53.828Z,94.79
2023-05-14T01:47:53.892Z,95.10
2023-05-14T01:48:53.886Z,95.31
2023-05-14T01:49:53.778Z,95.10
2023-05-14T01:50:53.776Z,95.31
2023-05-14T01:51:53.850Z,95.21
2023-05-14T01:52:53.737Z,95.10
2023-05-14T01:53:53.728Z,95.31
2023-05-14T01:54:53.730Z,95.62
2023-05-14T01:55:55.052Z,95.62
2023-05-14T01:56:53.687Z,95.10
2023-05-14T01:57:53.694Z,95.31
2023-05-14T01:58:53.668Z,95.31
2023-05-14T01:59:53.658Z,95.25
2023-05-14T02:00:53.665Z,95.67
2023-05-14T02:01:53.812Z,95.15
2023-05-14T02:02:53.703Z,95.15
2023-05-14T02:03:53.682Z,95.56
2023-05-14T02:04:53.592Z,95.56
2023-05-14T02:05:53.607Z,95.15
2023-05-14T02:06:53.576Z,95.50
2023-05-14T02:07:53.571Z,95.29
2023-05-14T02:08:53.548Z,95.40
2023-05-14T02:09:53.570Z,95.09
2023-05-14T02:10:53.547Z,95.71
2023-05-14T02:11:53.527Z,94.98
2023-05-14T02:12:53.501Z,95.71
2023-05-14T02:13:53.502Z,95.81
2023-05-14T02:14:53.502Z,95.29
2023-05-14T02:15:53.504Z,95.29
2023-05-14T02:16:53.492Z,95.50
2023-05-14T02:17:53.492Z,95.50
2023-05-14T02:18:53.563Z,95.19
2023-05-14T02:19:53.459Z,95.50
2023-05-14T02:20:53.424Z,95.50
2023-05-14T02:21:53.444Z,95.40
2023-05-14T02:22:53.407Z,95.92
2023-05-14T02:23:53.391Z,95.81
2023-05-14T02:24:53.374Z,95.86
2023-05-14T02:25:53.366Z,96.12
2023-05-14T02:26:53.369Z,95.92
2023-05-14T02:27:53.340Z,95.86
2023-05-14T02:28:53.341Z,96.75
2023-05-14T02:29:53.342Z,96.33
2023-05-14T02:30:53.307Z,96.75
2023-05-14T02:31:53.395Z,95.71
2023-05-14T02:32:53.413Z,96.06
2023-05-14T02:33:53.307Z,96.12
2023-05-14T02:34:53.278Z,95.86
2023-05-14T02:35:53.262Z,95.86
2023-05-14T02:36:53.261Z,95.50
2023-05-14T02:37:53.225Z,95.81
2023-05-14T02:38:53.218Z,95.61
2023-05-14T02:39:53.200Z,95.24
2023-05-14T02:40:53.221Z,95.40
2023-05-14T02:41:53.221Z,95.40
2023-05-14T02:42:53.187Z,95.50
2023-05-14T02:43:53.159Z,95.29
2023-05-14T02:44:53.156Z,95.29
2023-05-14T02:45:53.139Z,95.61
2023-05-14T02:46:53.197Z,95.81
2023-05-14T02:47:53.132Z,96.64
2023-05-14T02:48:53.115Z,96.75
2023-05-14T02:49:53.113Z,96.23
2023-05-14T02:50:53.119Z,96.33
2023-05-14T02:51:53.095Z,96.44
2023-05-14T02:52:53.065Z,96.64
2023-05-14T02:53:53.056Z,96.64
2023-05-14T02:54:53.043Z,96.64
2023-05-14T02:55:53.033Z,96.23
2023-05-14T02:56:53.045Z,95.71
2023-05-14T02:57:53.020Z,95.81
2023-05-14T02:58:53.001Z,95.61
2023-05-14T02:59:52.981Z,95.50
2023-05-14T03:00:53.049Z,95.71
2023-05-14T03:01:53.013Z,96.64
2023-05-14T03:02:53.177Z,96.44
2023-05-14T03:03:52.935Z,96.33
2023-05-14T03:04:52.930Z,96.54
2023-05-14T03:05:52.922Z,96.54
2023-05-14T03:06:52.951Z,96.33
2023-05-14T03:07:52.900Z,95.71
2023-05-14T03:08:52.890Z,95.81
2023-05-14T03:09:52.870Z,95.92
2023-05-14T03:10:52.912Z,95.81
2023-05-14T03:11:52.862Z,96.37
2023-05-14T03:12:52.845Z,96.27
2023-05-14T03:13:52.822Z,96.69
2023-05-14T03:14:52.831Z,96.79
2023-05-14T03:15:52.819Z,96.79
2023-05-14T03:16:52.879Z,96.69
2023-05-14T03:17:52.830Z,96.17
2023-05-14T03:18:52.817Z,96.27
2023-05-14T03:19:52.761Z,95.75
2023-05-14T03:20:52.826Z,96.17
2023-05-14T03:21:52.732Z,95.96
2023-05-14T03:22:52.752Z,96.69
2023-05-14T03:23:52.712Z,96.69
2023-05-14T03:24:52.718Z,96.37
2023-05-14T03:25:52.704Z,96.48
2023-05-14T03:26:52.704Z,96.48
2023-05-14T03:27:52.690Z,96.37
2023-05-14T03:28:52.675Z,96.48
2023-05-14T03:29:52.651Z,96.89
2023-05-14T03:30:52.736Z,97.00
2023-05-14T03:31:52.631Z,96.58
2023-05-14T03:32:52.767Z,96.79
2023-05-14T03:33:52.595Z,96.69
2023-05-14T03:34:52.602Z,97.20
2023-05-14T03:35:52.578Z,96.69
2023-05-14T03:36:54.450Z,96.79
2023-05-14T03:37:52.548Z,96.89
2023-05-14T03:38:52.565Z,97.00
2023-05-14T03:39:52.528Z,96.58
2023-05-14T03:40:52.524Z,96.79
2023-05-14T03:41:52.530Z,96.79
2023-05-14T03:42:52.513Z,96.75
2023-05-14T03:43:52.504Z,96.89
2023-05-14T03:44:52.486Z,96.58
2023-05-14T03:45:52.601Z,96.85
2023-05-14T03:46:52.501Z,96.37
2023-05-14T03:47:52.530Z,96.27
2023-05-14T03:48:52.463Z,96.27
2023-05-14T03:49:52.426Z,96.27
2023-05-14T03:50:52.438Z,96.27
2023-05-14T03:51:52.402Z,96.85
2023-05-14T03:52:52.403Z,96.54
2023-05-14T03:53:52.369Z,97.00
2023-05-14T03:54:52.382Z,96.64
2023-05-14T03:55:52.379Z,96.85
2023-05-14T03:56:52.342Z,96.85
2023-05-14T03:57:52.339Z,96.85
2023-05-14T03:58:52.331Z,96.64
2023-05-14T03:59:52.303Z,96.75
2023-05-14T04:00:52.295Z,96.64
2023-05-14T04:01:52.315Z,96.85
2023-05-14T04:02:52.380Z,96.44
2023-05-14T04:03:52.419Z,96.95
2023-05-14T04:04:52.334Z,97.16
2023-05-14T04:05:52.400Z,96.95
2023-05-14T04:06:52.255Z,96.85
2023-05-14T04:07:52.210Z,96.54
2023-05-14T04:08:52.211Z,96.75
2023-05-14T04:09:52.187Z,96.75
2023-05-14T04:10:52.205Z,96.70
2023-05-14T04:11:52.188Z,97.01
2023-05-14T04:12:52.176Z,96.59
2023-05-14T04:13:52.146Z,96.80
2023-05-14T04:14:52.138Z,97.17
2023-05-14T04:15:52.173Z,96.91
2023-05-14T04:16:52.161Z,96.97
2023-05-14T04:17:52.131Z,97.07
2023-05-14T04:18:52.123Z,97.49
2023-05-14T04:19:52.073Z,97.38
2023-05-14T04:20:52.085Z,98.00
2023-05-14T04:21:52.085Z,97.89
2023-05-14T04:22:52.046Z,98.10
2023-05-14T04:23:52.031Z,98.00
2023-05-14T04:24:52.047Z,97.96
2023-05-14T04:25:52.024Z,98.37
2023-05-14T04:26:52.044Z,97.96
2023-05-14T04:27:51.978Z,98.27
2023-05-14T04:28:51.992Z,98.27
2023-05-14T04:29:51.973Z,98.27
2023-05-14T04:30:51.953Z,98.06
2023-05-14T04:31:51.972Z,98.06
2023-05-14T04:32:51.962Z,98.37
2023-05-14T04:33:51.924Z,98.22
2023-05-14T04:34:51.905Z,98.01
2023-05-14T04:35:51.884Z,98.43
2023-05-14T04:36:51.884Z,98.22
2023-05-14T04:37:51.887Z,98.01
2023-05-14T04:38:51.856Z,98.43
2023-05-14T04:39:51.857Z,98.38
2023-05-14T04:40:51.944Z,98.38
2023-05-14T04:41:51.819Z,98.07
2023-05-14T04:42:51.849Z,97.76
2023-05-14T04:43:51.804Z,97.82
2023-05-14T04:44:51.799Z,98.33
2023-05-14T04:45:51.798Z,98.02
2023-05-14T04:46:51.792Z,98.13
2023-05-14T04:47:51.767Z,98.13
2023-05-14T04:48:51.775Z,98.29
2023-05-14T04:49:51.735Z,98.70
2023-05-14T04:50:51.716Z,98.29
2023-05-14T04:51:51.708Z,98.19
2023-05-14T04:52:51.733Z,98.29
2023-05-14T04:53:51.683Z,98.24
2023-05-14T04:54:51.688Z,98.76
2023-05-14T04:55:51.674Z,98.76
2023-05-14T04:56:51.658Z,98.30
2023-05-14T04:57:51.622Z,98.41
2023-05-14T04:58:51.644Z,98.71
2023-05-14T04:59:51.623Z,98.92
2023-05-14T05:00:51.641Z,98.82
2023-05-14T05:01:51.584Z,99.02
2023-05-14T05:02:51.650Z,98.67
2023-05-14T05:03:51.636Z,98.67
2023-05-14T05:04:51.563Z,98.83
2023-05-14T05:05:51.538Z,98.93
2023-05-14T05:06:51.527Z,99.04
2023-05-14T05:07:51.530Z,99.04
2023-05-14T05:08:51.517Z,98.83
2023-05-14T05:09:51.534Z,98.52
2023-05-14T05:10:51.506Z,99.40
2023-05-14T05:11:51.524Z,99.30
2023-05-14T05:12:51.470Z,99.19
2023-05-14T05:13:51.677Z,98.88
2023-05-14T05:14:51.487Z,99.15
2023-05-14T05:15:51.465Z,99.46
2023-05-14T05:16:51.476Z,99.10
2023-05-14T05:17:51.455Z,99.10
2023-05-14T05:18:51.471Z,99.21
2023-05-14T05:19:51.378Z,98.90
2023-05-14T05:20:51.376Z,99.47
2023-05-14T05:21:51.367Z,99.88
2023-05-14T05:22:51.352Z,99.42
2023-05-14T05:23:51.369Z,99.21
2023-05-14T05:24:51.329Z,99.07
2023-05-14T05:25:51.330Z,99.17
2023-05-14T05:26:51.306Z,99.07
2023-05-14T05:27:51.293Z,98.92
2023-05-14T05:28:51.309Z,99.18
2023-05-14T05:29:51.266Z,98.36
2023-05-14T05:30:51.279Z,98.25
2023-05-14T05:31:51.303Z,98.25
2023-05-14T05:32:51.259Z,97.39
2023-05-14T05:33:51.220Z,97.19
2023-05-14T05:34:51.237Z,96.94
2023-05-14T05:35:51.202Z,96.16
2023-05-14T05:36:51.187Z,96.42
2023-05-14T05:37:51.206Z,96.12
2023-05-14T05:38:51.173Z,96.01
2023-05-14T05:39:51.186Z,95.95
2023-05-14T05:40:51.142Z,95.91
2023-05-14T05:41:51.168Z,95.40
2023-05-14T05:42:51.121Z,95.40
2023-05-14T05:43:51.104Z,95.29
2023-05-14T05:44:51.118Z,94.74
2023-05-14T05:45:51.120Z,94.64
2023-05-14T05:46:51.251Z,94.64
2023-05-14T05:47:51.156Z,94.33
2023-05-14T05:48:51.051Z,94.33
2023-05-14T05:49:51.057Z,94.74
2023-05-14T05:50:51.028Z,93.62
2023-05-14T05:51:51.010Z,93.47
2023-05-14T05:52:51.029Z,93.57
2023-05-14T05:53:50.985Z,93.57
2023-05-14T05:54:50.999Z,93.63
2023-05-14T05:55:50.997Z,93.12
2023-05-14T05:56:50.965Z,92.30
2023-05-14T05:57:50.951Z,92.30
2023-05-14T05:58:50.940Z,92.15
2023-05-14T05:59:50.940Z,91.54
2023-05-14T06:00:50.916Z,90.52
2023-05-14T06:01:51.036Z,90.92
2023-05-14T06:02:51.151Z,90.82
2023-05-14T06:03:50.877Z,90.52
2023-05-14T06:04:57.933Z,90.62
2023-05-14T06:05:50.919Z,89.97
2023-05-14T06:06:51.038Z,90.58
2023-05-14T06:07:50.840Z,90.58
2023-05-14T06:08:50.836Z,90.23
2023-05-14T06:09:50.806Z,89.72
2023-05-14T06:10:50.820Z,89.20
2023-05-14T06:11:50.784Z,88.90
2023-05-14T06:12:50.794Z,89.88
2023-05-14T06:13:50.783Z,89.51
2023-05-14T06:14:50.762Z,89.67
2023-05-14T06:15:50.731Z,89.17
2023-05-14T06:16:50.884Z,89.17
2023-05-14T06:17:50.797Z,88.14
2023-05-14T06:18:50.772Z,87.49
2023-05-14T06:19:50.700Z,87.90
2023-05-14T06:20:50.688Z,87.59
2023-05-14T06:21:50.673Z,88.20
2023-05-14T06:22:50.680Z,87.85
2023-05-14T06:23:50.670Z,87.90
2023-05-14T06:24:50.643Z,87.96
2023-05-14T06:25:50.829Z,87.76
2023-05-14T06:26:50.637Z,88.67
2023-05-14T06:27:50.715Z,88.26
2023-05-14T06:28:50.603Z,87.92
2023-05-14T06:29:50.580Z,88.43
2023-05-14T06:30:50.641Z,86.76
2023-05-14T06:31:50.614Z,85.98
2023-05-14T06:32:50.627Z,85.02
2023-05-14T06:33:50.532Z,85.53
2023-05-14T06:34:50.543Z,86.24
2023-05-14T06:35:50.526Z,86.04
2023-05-14T06:36:50.498Z,85.28
2023-05-14T06:37:50.520Z,85.28
2023-05-14T06:38:50.502Z,84.88
2023-05-14T06:39:50.518Z,83.90
2023-05-14T06:40:50.454Z,82.88
2023-05-14T06:41:50.472Z,83.96
2023-05-14T06:42:50.474Z,83.65
2023-05-14T06:43:50.413Z,82.40
2023-05-14T06:44:50.458Z,82.52
2023-05-14T06:45:50.389Z,82.24
2023-05-14T06:46:50.664Z,80.18
2023-05-14T06:47:50.400Z,80.59
2023-05-14T06:48:50.438Z,79.98
2023-05-14T06:49:50.371Z,80.08
2023-05-14T06:50:50.370Z,81.10
2023-05-14T06:51:50.354Z,79.71
2023-05-14T06:52:50.384Z,81.04
2023-05-14T06:53:50.314Z,81.27
2023-05-14T06:54:50.389Z,81.07
2023-05-14T06:55:50.297Z,81.11
2023-05-14T06:56:50.273Z,81.48
2023-05-14T06:57:50.267Z,81.72
2023-05-14T06:58:50.265Z,82.09
2023-05-14T06:59:50.260Z,82.05
2023-05-14T07:00:50.215Z,81.40
2023-05-14T07:01:50.267Z,81.81
2023-05-14T07:02:50.262Z,80.90
2023-05-14T07:03:50.251Z,81.16
2023-05-14T07:04:50.173Z,79.98
2023-05-14T07:05:50.188Z,81.57
2023-05-14T07:06:50.179Z,83.67
2023-05-14T07:07:50.143Z,81.90
2023-05-14T07:08:50.152Z,80.98
2023-05-14T07:09:50.124Z,80.27
2023-05-14T07:10:50.125Z,77.43
2023-05-14T07:11:50.101Z,77.26
2023-05-14T07:12:50.085Z,77.70
2023-05-14T07:13:50.100Z,78.99
2023-05-14T07:14:50.062Z,79.23
2023-05-14T07:15:50.126Z,79.33
2023-05-14T07:16:50.049Z,79.33
2023-05-14T07:17:50.147Z,79.63
2023-05-14T07:18:50.036Z,81.23
2023-05-14T07:19:50.020Z,79.39
2023-05-14T07:20:49.993Z,79.50
2023-05-14T07:21:50.010Z,79.36
2023-05-14T07:22:49.995Z,79.36
2023-05-14T07:23:50.042Z,77.94
2023-05-14T07:24:49.983Z,79.36
2023-05-14T07:25:49.944Z,78.75
2023-05-14T07:26:49.930Z,79.42
2023-05-14T07:27:49.959Z,79.46
2023-05-14T07:28:49.932Z,79.63
2023-05-14T07:29:49.895Z,79.32
2023-05-14T07:30:49.917Z,78.41
2023-05-14T07:31:49.964Z,77.29
2023-05-14T07:32:49.977Z,77.49
2023-05-14T07:33:49.871Z,77.02
2023-05-14T07:34:49.838Z,77.83
2023-05-14T07:35:49.842Z,78.85
2023-05-14T07:36:49.816Z,77.43
2023-05-14T07:37:49.807Z,77.47
2023-05-14T07:38:49.823Z,77.36
2023-05-14T07:39:49.795Z,78.11
2023-05-14T07:40:49.787Z,78.55
2023-05-14T07:41:49.764Z,79.50
2023-05-14T07:42:49.781Z,79.57
2023-05-14T07:43:49.789Z,79.23
2023-05-14T07:44:49.724Z,80.55
2023-05-14T07:45:49.780Z,79.70
2023-05-14T07:46:49.805Z,78.82
2023-05-14T07:47:49.789Z,79.74
2023-05-14T07:48:49.680Z,79.60
2023-05-14T07:49:49.676Z,80.47
2023-05-14T07:50:49.675Z,78.28
2023-05-14T07:51:49.648Z,77.81
2023-05-14T07:52:49.722Z,78.41
2023-05-14T07:53:49.649Z,78.15
2023-05-14T07:54:50.653Z,80.02
2023-05-14T07:55:49.622Z,79.81
2023-05-14T07:56:49.626Z,79.88
2023-05-14T07:57:49.579Z,79.16
2023-05-14T07:58:49.565Z,79.98
2023-05-14T07:59:49.586Z,80.49
2023-05-14T08:00:49.536Z,79.88
2023-05-14T08:01:49.561Z,80.45
2023-05-14T08:02:49.616Z,80.96
2023-05-14T08:03:49.615Z,81.02
2023-05-14T08:04:49.513Z,80.68
2023-05-14T08:05:49.515Z,79.32
2023-05-14T08:06:49.470Z,78.30
2023-05-14T08:07:49.473Z,78.47
2023-05-14T08:08:49.449Z,77.12
2023-05-14T08:09:49.451Z,77.72
2023-05-14T08:10:49.561Z,75.43
2023-05-14T08:11:49.449Z,75.32
2023-05-14T08:12:49.416Z,76.68
2023-05-14T08:13:49.394Z,77.25
2023-05-14T08:14:49.378Z,76.85
2023-05-14T08:15:49.399Z,76.95
2023-05-14T08:16:49.413Z,76.03
2023-05-14T08:17:49.427Z,76.91
2023-05-14T08:18:49.392Z,75.79
2023-05-14T08:19:50.285Z,77.69
2023-05-14T08:20:49.335Z,77.25
2023-05-14T08:21:49.323Z,74.44
2023-05-14T08:22:49.284Z,75.35
2023-05-14T08:23:49.283Z,74.98
2023-05-14T08:24:49.294Z,75.29
2023-05-14T08:25:49.275Z,75.49
2023-05-14T08:26:49.276Z,74.58
2023-05-14T08:27:49.235Z,76.61
2023-05-14T08:28:49.315Z,75.05
2023-05-14T08:29:49.225Z,75.52
2023-05-14T08:30:49.268Z,74.21
2023-05-14T08:31:49.201Z,75.01
2023-05-14T08:32:49.213Z,72.89
2023-05-14T08:33:49.184Z,73.86
2023-05-14T08:34:49.141Z,73.83
2023-05-14T08:35:49.155Z,73.53
2023-05-14T08:36:49.126Z,73.29
2023-05-14T08:37:49.114Z,74.87
2023-05-14T08:38:49.134Z,72.44
2023-05-14T08:39:49.100Z,73.22
2023-05-14T08:40:49.086Z,72.58
2023-05-14T08:41:49.095Z,71.87
2023-05-14T08:42:49.078Z,73.90
2023-05-14T08:43:49.058Z,72.17
2023-05-14T08:44:49.030Z,71.67
2023-05-14T08:45:49.027Z,71.44
2023-05-14T08:46:49.032Z,70.53
2023-05-14T08:47:50.043Z,70.83
2023-05-14T08:48:49.060Z,70.32
2023-05-14T08:49:49.152Z,71.60
2023-05-14T08:50:48.978Z,70.39
2023-05-14T08:51:48.953Z,69.38
2023-05-14T08:52:48.946Z,68.51
2023-05-14T08:53:48.928Z,70.05
2023-05-14T08:54:48.920Z,69.68
2023-05-14T08:55:48.930Z,70.12
2023-05-14T08:56:51.200Z,71.64
2023-05-14T08:57:48.888Z,72.44
2023-05-14T08:58:48.903Z,71.60
2023-05-14T08:59:48.864Z,72.01
2023-05-14T09:00:48.847Z,70.62
2023-05-14T09:01:49.109Z,71.53
2023-05-14T09:02:48.837Z,70.69
2023-05-14T09:03:48.853Z,71.00
2023-05-14T09:04:48.810Z,72.01
2023-05-14T09:05:48.790Z,69.78
2023-05-14T09:06:48.773Z,70.18
2023-05-14T09:07:48.796Z,71.91
2023-05-14T09:08:48.758Z,69.68
2023-05-14T09:09:48.748Z,70.59
2023-05-14T09:10:48.748Z,71.09
2023-05-14T09:11:48.749Z,71.40
2023-05-14T09:12:48.732Z,71.26
2023-05-14T09:13:48.708Z,69.75
2023-05-14T09:14:48.708Z,71.80
2023-05-14T09:15:48.797Z,68.37
2023-05-14T09:16:48.831Z,65.88
2023-05-14T09:17:48.757Z,67.39
2023-05-14T09:18:48.719Z,68.20
2023-05-14T09:19:48.636Z,67.06
2023-05-14T09:20:48.638Z,69.45
2023-05-14T09:21:48.618Z,69.24
2023-05-14T09:22:48.598Z,65.24
2023-05-14T09:23:48.600Z,66.61
2023-05-14T09:24:48.598Z,69.21
2023-05-14T09:25:48.582Z,68.40
2023-05-14T09:26:48.556Z,66.11
2023-05-14T09:27:48.540Z,68.16
2023-05-14T09:28:48.542Z,66.85
2023-05-14T09:29:48.513Z,66.44
2023-05-14T09:30:48.520Z,66.88
2023-05-14T09:31:48.547Z,66.41
2023-05-14T09:32:48.512Z,67.48
2023-05-14T09:33:48.502Z,68.80
2023-05-14T09:34:48.456Z,70.45
2023-05-14T09:35:48.456Z,70.72
2023-05-14T09:36:48.441Z,68.87
2023-05-14T09:37:48.471Z,69.17
2023-05-14T09:38:48.410Z,69.85
2023-05-14T09:39:48.404Z,71.44
2023-05-14T09:40:48.408Z,70.39
2023-05-14T09:41:48.393Z,70.56
2023-05-14T09:42:48.360Z,65.88
2023-05-14T09:43:48.364Z,65.07
2023-05-14T09:44:48.342Z,65.94
2023-05-14T09:45:48.355Z,66.81
2023-05-14T09:46:48.377Z,68.63
2023-05-14T09:47:48.406Z,65.19
2023-05-14T09:48:48.294Z,67.11
2023-05-14T09:49:48.307Z,68.63
2023-05-14T09:50:48.296Z,66.88
2023-05-14T09:51:48.281Z,65.16
2023-05-14T09:52:51.068Z,64.25
2023-05-14T09:53:48.318Z,66.61
2023-05-14T09:54:48.272Z,68.50
2023-05-14T09:55:48.217Z,66.98
2023-05-14T09:56:48.221Z,68.67
2023-05-14T09:57:48.203Z,66.41
2023-05-14T09:58:48.191Z,64.62
2023-05-14T09:59:48.183Z,65.19
2023-05-14T10:00:48.199Z,66.41
2023-05-14T10:01:48.175Z,66.91
2023-05-14T10:02:48.174Z,68.70
2023-05-14T10:03:48.124Z,69.81
2023-05-14T10:04:48.149Z,69.27
2023-05-14T10:05:48.108Z,68.47
2023-05-14T10:06:48.134Z,68.54
2023-05-14T10:07:48.112Z,66.21
2023-05-14T10:08:48.067Z,67.43
2023-05-14T10:09:48.070Z,67.60
2023-05-14T10:10:48.076Z,68.30
2023-05-14T10:11:48.042Z,65.34
2023-05-14T10:12:48.028Z,65.44
2023-05-14T10:13:48.020Z,65.84
2023-05-14T10:14:48.014Z,65.14
2023-05-14T10:15:48.004Z,65.95
2023-05-14T10:16:48.017Z,65.34
2023-05-14T10:17:48.006Z,65.78
2023-05-14T10:18:48.055Z,64.76
2023-05-14T10:19:47.965Z,66.99
2023-05-14T10:20:47.935Z,68.40
2023-05-14T10:21:47.923Z,68.57
2023-05-14T10:22:47.911Z,67.73
2023-05-14T10:23:47.906Z,68.44
2023-05-14T10:24:47.908Z,67.02
2023-05-14T10:25:47.881Z,65.61
2023-05-14T10:26:47.865Z,64.87
2023-05-14T10:27:47.872Z,65.99
2023-05-14T10:28:47.834Z,66.25
2023-05-14T10:29:47.829Z,63.49
2023-05-14T10:30:47.845Z,63.46
2023-05-14T10:31:47.881Z,66.12
2023-05-14T10:32:47.886Z,65.11
2023-05-14T10:33:47.786Z,63.70
2023-05-14T10:34:47.784Z,66.62
2023-05-14T10:35:47.783Z,66.59
2023-05-14T10:36:47.752Z,65.05
2023-05-14T10:37:47.741Z,65.05
2023-05-14T10:38:47.754Z,62.83
2023-05-14T10:39:47.732Z,64.72
2023-05-14T10:40:47.697Z,63.47
2023-05-14T10:41:47.718Z,61.05
2023-05-14T10:42:47.677Z,59.67
2023-05-14T10:43:47.707Z,62.32
2023-05-14T10:44:47.656Z,62.93
2023-05-14T10:45:47.669Z,61.68
2023-05-14T10:46:47.680Z,65.11
2023-05-14T10:47:47.669Z,62.18
2023-05-14T10:48:47.610Z,65.92
2023-05-14T10:49:47.621Z,65.71
2023-05-14T10:50:47.635Z,65.01
2023-05-14T10:51:47.578Z,64.87
2023-05-14T10:52:47.581Z,63.73
2023-05-14T10:53:47.557Z,60.16
2023-05-14T10:54:47.539Z,60.09
2023-05-14T10:55:47.559Z,62.64
2023-05-14T10:56:47.547Z,66.38
2023-05-14T10:57:47.523Z,64.61
2023-05-14T10:58:47.491Z,68.21
2023-05-14T10:59:47.494Z,63.23
2023-05-14T11:00:47.491Z,61.95
2023-05-14T11:01:47.552Z,61.85
2023-05-14T11:02:47.501Z,63.29
2023-05-14T11:03:47.448Z,63.59
2023-05-14T11:04:47.444Z,62.38
2023-05-14T11:05:47.421Z,63.18
2023-05-14T11:06:47.445Z,65.94
2023-05-14T11:07:47.390Z,66.41
2023-05-14T11:08:47.397Z,66.01
2023-05-14T11:09:47.368Z,66.08
2023-05-14T11:10:47.365Z,66.25
2023-05-14T11:11:47.362Z,67.06
2023-05-14T11:12:47.340Z,66.32
2023-05-14T11:13:47.341Z,63.79
2023-05-14T11:14:47.322Z,64.84
2023-05-14T11:15:47.316Z,64.90
2023-05-14T11:16:47.343Z,66.62
2023-05-14T11:17:47.300Z,67.63
2023-05-14T11:18:47.331Z,64.87
2023-05-14T11:19:48.859Z,66.19
2023-05-14T11:20:47.255Z,66.86
2023-05-14T11:21:47.347Z,66.22
2023-05-14T11:22:47.263Z,66.60
2023-05-14T11:23:47.213Z,62.16
2023-05-14T11:24:47.232Z,61.16
2023-05-14T11:25:50.103Z,59.77
2023-05-14T11:26:47.349Z,62.09
2023-05-14T11:27:47.221Z,64.78
2023-05-14T11:28:47.238Z,61.89
2023-05-14T11:29:47.160Z,64.54
2023-05-14T11:30:47.180Z,63.60
2023-05-14T11:31:47.147Z,64.31
2023-05-14T11:32:47.180Z,65.89
2023-05-14T11:33:47.099Z,64.69
2023-05-14T11:34:47.117Z,63.57
2023-05-14T11:35:47.126Z,63.27
2023-05-14T11:36:47.112Z,61.96
2023-05-14T11:37:47.051Z,64.25
2023-05-14T11:38:47.083Z,64.62
2023-05-14T11:39:47.027Z,62.18
2023-05-14T11:40:47.039Z,63.25
2023-05-14T11:41:47.027Z,64.66
2023-05-14T11:42:47.016Z,62.82
2023-05-14T11:43:46.984Z,61.34
2023-05-14T11:44:46.978Z,61.71
2023-05-14T11:45:47.002Z,61.71
2023-05-14T11:46:46.954Z,61.85
2023-05-14T11:47:46.977Z,62.24
2023-05-14T11:48:46.945Z,60.24
2023-05-14T11:49:46.950Z,59.76
2023-05-14T11:50:46.920Z,60.29
2023-05-14T11:51:46.908Z,60.75
2023-05-14T11:52:46.914Z,61.96
2023-05-14T11:53:46.898Z,61.96
2023-05-14T11:54:46.908Z,63.60
2023-05-14T11:55:46.868Z,63.37
2023-05-14T11:56:46.842Z,65.01
2023-05-14T11:57:46.822Z,61.66
2023-05-14T11:58:46.849Z,60.98
2023-05-14T11:59:46.795Z,62.93
2023-05-14T12:00:46.820Z,61.61
2023-05-14T12:01:48.069Z,62.52
2023-05-14T12:02:46.889Z,64.51
2023-05-14T12:03:46.828Z,62.80
2023-05-14T12:04:46.798Z,63.67
2023-05-14T12:05:46.749Z,62.37
2023-05-14T12:06:46.750Z,60.75
2023-05-14T12:07:46.804Z,60.48
2023-05-14T12:08:46.711Z,62.09
2023-05-14T12:09:46.709Z,64.51
2023-05-14T12:10:46.702Z,62.37
2023-05-14T12:11:46.673Z,64.51
2023-05-14T12:12:46.667Z,64.69
2023-05-14T12:13:46.638Z,64.35
2023-05-14T12:14:46.642Z,63.20
2023-05-14T12:15:46.637Z,60.98
2023-05-14T12:16:46.801Z,62.40
2023-05-14T12:17:46.689Z,60.48
2023-05-14T12:18:46.811Z,60.08
2023-05-14T12:19:46.588Z,60.61
2023-05-14T12:20:46.628Z,61.35
2023-05-14T12:21:46.548Z,62.45
2023-05-14T12:22:46.567Z,63.36
2023-05-14T12:23:46.530Z,66.49
2023-05-14T12:24:46.515Z,64.27
2023-05-14T12:25:46.519Z,61.75
2023-05-14T12:26:46.516Z,63.06
2023-05-14T12:27:46.472Z,62.85
2023-05-14T12:28:46.483Z,64.54
2023-05-14T12:29:46.453Z,64.75
2023-05-14T12:30:46.451Z,60.51
2023-05-14T12:31:46.481Z,61.11
2023-05-14T12:32:46.509Z,60.10
2023-05-14T12:33:46.456Z,62.49
2023-05-14T12:34:46.410Z,63.10
2023-05-14T12:35:46.400Z,63.78
2023-05-14T12:36:46.380Z,60.61
2023-05-14T12:37:46.432Z,63.26
2023-05-14T12:38:46.987Z,62.79
2023-05-14T12:39:46.345Z,61.77
2023-05-14T12:40:46.340Z,63.32
2023-05-14T12:41:46.334Z,62.95
2023-05-14T12:42:46.362Z,64.67
2023-05-14T12:43:46.303Z,64.29
2023-05-14T12:44:46.293Z,66.78
2023-05-14T12:45:46.272Z,65.07
2023-05-14T12:46:46.350Z,64.16
2023-05-14T12:47:46.322Z,63.25
2023-05-14T12:48:46.268Z,63.55
2023-05-14T12:49:46.247Z,63.58
2023-05-14T12:50:46.227Z,64.52
2023-05-14T12:51:46.220Z,64.93
2023-05-14T12:52:46.201Z,65.50